Uvalde, TX

4:26 PM CST on January 22, 2018 (GMT -0600)
Garner

Weather History for KUVA - May, 2013

Change the Weather History Date:

Tuesday, May 7, 2013

  Actual Average (KHDO) Record (KHDO)
Temperature  
Mean Temperature 72 °F -  
Max Temperature 88 °F 84 °F 99 °F (1998)
Min Temperature 55 °F 62 °F 51 °F (1999)
Cooling Degree Days 6    
Growing Degree Days 22 (Base 50)    
Moisture  
Dew Point 54 °F    
Average Humidity 59    
Maximum Humidity 88    
Minimum Humidity 29    
Precipitation  
Precipitation 0.00 in - - ()
Sea Level Pressure  
Sea Level Pressure 30.01 in    
Wind  
Wind Speed 6 mph (ESE)    
Max Wind Speed 16 mph    
Max Gust Speed 23 mph    
Visibility 10 miles    
Events      
Averages and records for this station are not official NWS values.
T = Trace of Precipitation, MM = Missing Value Source: NWS Daily Summary

Daily Weather History Graph

Daily Weather History Graph

Search for Another Location

Airport or City:

Trip Planner

Search our weather history database for the weather conditions in past years. The results will help you decide how hot, cold, wet, or windy it might be!

Date:

Astronomy

May. 07, 2013 Rise Set
Actual Time 6:52 AM CDT 8:19 PM CDT
Civil Twilight 6:26 AM CDT 8:44 PM CDT
Nautical Twilight 5:56 AM CDT 9:15 PM CDT
Astronomical Twilight 5:24 AM CDT 9:46 PM CDT
Moon 5:17 AM CDT (5/7) 6:27 PM CDT (5/7)
Length of Visible Light 14h 17m
Length of Day
13h 26m
Waning Crescent, 5% of the Moon is Illuminated
May 7
Waning Crescent
May 9
New
May 17
First Quarter
May 24
Full
May 31
Last Quarter

Hourly Weather History & Observations

Time (CDT) Temp. Heat Index Dew Point Humidity Pressure Visibility Wind Dir Wind Speed Gust Speed Precip Events Conditions
12:15 AM 61.3 °F - 49.6 °F 65% 30.04 in 10.0 mi Calm Calm - N/A   Clear
12:35 AM 60.3 °F - 50.0 °F 69% 30.04 in 10.0 mi Calm Calm - N/A   Clear
12:55 AM 60.3 °F - 50.7 °F 71% 30.05 in 10.0 mi ENE 5.8 mph - N/A   Clear
1:15 AM 59.0 °F - 50.0 °F 72% 30.05 in 10.0 mi ENE 5.8 mph - N/A   Clear
1:35 AM 59.0 °F - 50.0 °F 72% 30.05 in 10.0 mi ENE 4.6 mph - N/A   Clear
1:55 AM 57.7 °F - 49.3 °F 73% 30.05 in 10.0 mi ENE 5.8 mph - N/A   Clear
2:15 AM 57.7 °F - 49.5 °F 74% 30.04 in 10.0 mi ENE 5.8 mph - N/A   Clear
2:35 AM 57.7 °F - 50.0 °F 75% 30.04 in 10.0 mi NE 5.8 mph - N/A   Clear
2:55 AM 57.7 °F - 50.0 °F 75% 30.04 in 10.0 mi Calm Calm - N/A   Clear
3:15 AM 57.7 °F - 50.2 °F 76% 30.03 in 10.0 mi NE 6.9 mph - N/A   Clear
3:35 AM 57.7 °F - 50.9 °F 78% 30.03 in 10.0 mi ENE 4.6 mph - N/A   Clear
3:55 AM 56.7 °F - 50.4 °F 79% 30.03 in 10.0 mi ENE 4.6 mph - N/A   Clear
4:15 AM 55.9 °F - 50.2 °F 81% 30.03 in 10.0 mi Calm Calm - N/A   Clear
4:35 AM 56.7 °F - 50.9 °F 81% 30.03 in 10.0 mi Calm Calm - N/A   Clear
4:55 AM 57.2 °F - 51.4 °F 81% 30.03 in 10.0 mi ENE 5.8 mph - N/A   Clear
5:15 AM 55.4 °F - 50.0 °F 82% 30.03 in 10.0 mi ENE 3.5 mph - N/A   Clear
5:35 AM 55.4 °F - 50.9 °F 85% 30.03 in 10.0 mi NE 3.5 mph - N/A   Clear
5:55 AM 55.4 °F - 51.4 °F 87% 30.04 in 10.0 mi Calm Calm - N/A   Clear
6:15 AM 55.2 °F - 51.8 °F 88% 30.04 in 10.0 mi ENE 5.8 mph - N/A   Clear
6:35 AM 55.4 °F - 51.8 °F 88% 30.04 in 10.0 mi ENE 4.6 mph - N/A   Clear
6:55 AM 55.4 °F - 52.0 °F 88% 30.05 in 10.0 mi NE 5.8 mph - N/A   Clear
7:15 AM 55.4 °F - 52.0 °F 88% 30.05 in 10.0 mi ENE 4.6 mph - N/A   Clear
7:35 AM 55.4 °F - 51.8 °F 88% 30.06 in 10.0 mi ENE 5.8 mph - N/A   Clear
7:55 AM 57.7 °F - 53.1 °F 84% 30.06 in 10.0 mi ENE 8.1 mph - N/A   Clear
8:15 AM 60.3 °F - 54.5 °F 81% 30.07 in 10.0 mi ENE 6.9 mph - N/A   Clear
8:35 AM 62.2 °F - 55.9 °F 80% 30.07 in 10.0 mi East 8.1 mph - N/A   Clear
8:55 AM 65.3 °F - 57.6 °F 76% 30.07 in 10.0 mi East 9.2 mph - N/A   Clear
9:15 AM 68.0 °F - 58.3 °F 71% 30.07 in 10.0 mi ESE 8.1 mph - N/A   Clear
9:35 AM 68.5 °F - 55.4 °F 63% 30.07 in 10.0 mi East 9.2 mph - N/A   Clear
9:55 AM 71.4 °F - 55.8 °F 58% 30.08 in 10.0 mi ESE 6.9 mph - N/A   Clear
10:15 AM 72.9 °F - 55.0 °F 53% 30.08 in 10.0 mi ESE 9.2 mph - N/A   Clear
10:35 AM 72.9 °F - 52.0 °F 48% 30.07 in 10.0 mi SE 10.4 mph - N/A   Clear
11:15 AM 75.4 °F - 50.4 °F 41% 30.07 in 10.0 mi East 9.2 mph - N/A   Clear
11:35 AM 76.6 °F - 49.8 °F 39% 30.07 in 10.0 mi East 6.9 mph - N/A   Clear
11:55 AM 77.4 °F - 50.4 °F 39% 30.06 in 10.0 mi SE 10.4 mph 17.3 mph N/A   Clear
12:15 PM 78.1 °F - 47.1 °F 33% 30.06 in 10.0 mi SE 9.2 mph - N/A   Clear
12:35 PM 79.2 °F - 45.9 °F 31% 30.05 in 10.0 mi SE 10.4 mph - N/A   Clear
12:55 PM 80.4 °F - 45.1 °F 29% 30.04 in 10.0 mi SE 11.5 mph - N/A   Clear
1:15 PM 80.8 °F - 47.3 °F 31% 30.03 in 10.0 mi SSE 12.7 mph 17.3 mph N/A   Clear
1:35 PM 82.2 °F - 50.2 °F 33% 30.02 in 10.0 mi SSE 11.5 mph - N/A   Clear
1:55 PM 82.6 °F - 51.6 °F 34% 30.01 in 10.0 mi SE 13.8 mph 18.4 mph N/A   Clear
2:15 PM 83.8 °F 82.4 °F 53.2 °F 35% 30.00 in 10.0 mi South 9.2 mph 17.3 mph N/A   Clear
2:35 PM 85.6 °F 84.1 °F 54.7 °F 35% 29.99 in 10.0 mi SE 10.4 mph - N/A   Clear
2:55 PM 86.0 °F 84.5 °F 55.0 °F 35% 29.98 in 10.0 mi SSE 13.8 mph - N/A   Clear
3:15 PM 84.9 °F 83.6 °F 54.9 °F 36% 29.97 in - ESE 11.5 mph - N/A   Clear
3:35 PM 86.5 °F 85.4 °F 57.4 °F 37% 29.96 in 10.0 mi SSE 12.7 mph 18.4 mph N/A   Clear
3:55 PM 88.0 °F 87.1 °F 58.8 °F 37% 29.96 in 10.0 mi SSE 13.8 mph 18.4 mph N/A   Clear
4:15 PM 85.3 °F 84.8 °F 59.0 °F 41% 29.95 in 10.0 mi South 11.5 mph - N/A   Clear
4:55 PM 85.5 °F 85.4 °F 60.8 °F 43% 29.93 in 5.0 mi South 12.7 mph 23.0 mph N/A   Haze
5:15 PM 83.5 °F 83.4 °F 59.5 °F 44% 29.93 in - South 16.1 mph - N/A   Clear
5:35 PM 85.5 °F 85.7 °F 61.2 °F 44% 29.92 in 10.0 mi South 11.5 mph 21.9 mph N/A   Clear
5:55 PM 83.5 °F 83.7 °F 60.4 °F 46% 29.91 in 10.0 mi SSE 12.7 mph 19.6 mph N/A   Clear
6:15 PM 82.9 °F 83.2 °F 60.1 °F 46% 29.91 in 10.0 mi SSE 13.8 mph 18.4 mph N/A   Clear
6:55 PM 81.7 °F 82.0 °F 59.5 °F 47% 29.91 in 10.0 mi South 11.5 mph - N/A   Clear
7:15 PM 81.7 °F 82.2 °F 60.4 °F 48% 29.91 in 10.0 mi SSE 10.4 mph - N/A   Clear
7:35 PM 80.6 °F 81.2 °F 60.1 °F 49% 29.92 in 10.0 mi South 11.5 mph - N/A   Clear
7:55 PM 80.6 °F 81.2 °F 59.9 °F 49% 29.92 in 10.0 mi SSE 10.4 mph - N/A   Clear
8:15 PM 80.6 °F 81.4 °F 60.3 °F 50% 29.93 in 10.0 mi SE 11.5 mph - N/A   Clear
8:35 PM 79.2 °F - 59.9 °F 52% 29.93 in 10.0 mi SE 8.1 mph - N/A   Clear
8:55 PM 77.9 °F - 59.4 °F 53% 29.94 in 10.0 mi Calm Calm - N/A   Clear
9:15 PM 77.9 °F - 59.9 °F 54% 29.94 in 10.0 mi Calm Calm - N/A   Clear
9:35 PM 77.9 °F - 60.8 °F 56% 29.94 in 10.0 mi SE 4.6 mph - N/A   Clear
9:55 PM 75.4 °F - 59.4 °F 57% 29.95 in 10.0 mi SE 4.6 mph - N/A   Clear
10:15 PM 75.4 °F - 59.9 °F 58% 29.96 in 10.0 mi SE 3.5 mph - N/A   Clear
10:35 PM 74.5 °F - 60.1 °F 61% 29.96 in 10.0 mi ESE 3.5 mph - N/A   Clear
10:55 PM 73.4 °F - 59.2 °F 61% 29.96 in 10.0 mi SE 5.8 mph - N/A   Clear
11:15 PM 75.4 °F - 60.1 °F 59% 29.96 in 10.0 mi SE 9.2 mph - N/A   Clear
11:35 PM 75.4 °F - 59.9 °F 58% 29.97 in 10.0 mi ESE 10.4 mph - N/A   Clear
11:55 PM 73.0 °F - 59.0 °F 61% 29.97 in 10.0 mi ESE 10.4 mph - N/A   Clear